createdAt,value
2022-09-11T00:02:25.527Z,0.22
2022-09-11T00:06:30.597Z,0.32
2022-09-11T00:10:38.406Z,0.40
2022-09-11T00:14:42.119Z,0.30
2022-09-11T00:18:47.526Z,0.43
2022-09-11T00:22:51.231Z,0.40
2022-09-11T00:26:54.692Z,0.68
2022-09-11T00:31:02.566Z,0.15
2022-09-11T00:35:08.795Z,0.32
2022-09-11T00:39:13.340Z,0.13
2022-09-11T00:43:18.296Z,0.40
2022-09-11T00:47:21.759Z,0.30
2022-09-11T00:51:30.748Z,0.55
2022-09-11T00:55:38.453Z,0.40
2022-09-11T00:59:45.593Z,0.40
2022-09-11T01:03:49.114Z,0.20
2022-09-11T01:07:56.168Z,0.25
2022-09-11T01:12:06.817Z,0.70
2022-09-11T01:16:19.882Z,0.32
2022-09-11T01:20:32.020Z,0.45
2022-09-11T01:24:55.262Z,0.63
2022-09-11T01:29:05.459Z,0.40
2022-09-11T01:33:18.790Z,0.40
2022-09-11T01:37:26.405Z,0.43
2022-09-11T01:41:35.474Z,0.32
2022-09-11T01:45:42.821Z,0.60
2022-09-11T01:49:51.922Z,0.40
2022-09-11T01:53:59.926Z,0.30
2022-09-11T01:58:08.218Z,0.45
2022-09-11T02:02:15.248Z,0.40
2022-09-11T02:10:33.513Z,0.50
2022-09-11T02:14:41.424Z,0.57
2022-09-11T02:18:56.776Z,0.43
2022-09-11T02:23:00.543Z,0.25
2022-09-11T02:27:07.512Z,0.40
2022-09-11T02:31:11.411Z,0.60
2022-09-11T02:35:17.471Z,0.30
2022-09-11T02:39:36.889Z,0.30
2022-09-11T02:43:52.582Z,0.52
2022-09-11T02:48:07.026Z,0.35
2022-09-11T02:52:21.376Z,0.45
2022-09-11T02:56:31.354Z,0.47
2022-09-11T03:00:35.478Z,0.47
2022-09-11T03:04:38.936Z,0.40
2022-09-11T03:08:43.739Z,0.38
2022-09-11T03:12:47.166Z,0.50
2022-09-11T03:16:50.414Z,0.38
2022-09-11T03:20:53.925Z,0.80
2022-09-11T03:24:59.277Z,0.40
2022-09-11T03:29:02.508Z,0.28
2022-09-11T03:33:05.572Z,0.47
2022-09-11T03:37:09.130Z,0.20
2022-09-11T03:41:13.988Z,0.30
2022-09-11T03:45:17.703Z,0.40
2022-09-11T03:49:21.354Z,0.30
2022-09-11T03:53:24.914Z,0.55
2022-09-11T03:57:30.326Z,0.40
2022-09-11T04:01:33.862Z,0.20
2022-09-11T04:05:37.265Z,0.25
2022-09-11T04:09:40.338Z,0.35
2022-09-11T04:13:45.501Z,0.50
2022-09-11T04:17:49.745Z,0.43
2022-09-11T04:21:53.683Z,0.30
2022-09-11T04:25:56.746Z,0.43
2022-09-11T04:30:01.668Z,0.28
2022-09-11T04:34:05.433Z,0.28
2022-09-11T04:38:09.761Z,0.50
2022-09-11T04:42:13.301Z,0.20
2022-09-11T04:46:19.407Z,0.30
2022-09-11T04:50:22.899Z,0.47
2022-09-11T04:54:26.416Z,0.55
2022-09-11T04:58:29.908Z,0.50
2022-09-11T05:02:34.878Z,0.22
2022-09-11T05:06:38.469Z,0.70
2022-09-11T05:10:42.790Z,0.77
2022-09-11T05:14:46.206Z,0.50
2022-09-11T05:18:53.928Z,0.35
2022-09-11T05:22:57.251Z,0.40
2022-09-11T05:27:00.693Z,0.30
2022-09-11T05:31:13.026Z,0.40
2022-09-11T05:35:18.090Z,0.55
2022-09-11T05:39:21.100Z,0.55
2022-09-11T05:43:24.920Z,0.45
2022-09-11T05:47:28.411Z,0.30
2022-09-11T05:51:36.319Z,0.30
2022-09-11T05:55:39.927Z,0.55
2022-09-11T05:59:43.105Z,0.30
2022-09-11T06:03:48.099Z,0.50
2022-09-11T06:07:52.910Z,0.30
2022-09-11T06:11:57.102Z,0.43
2022-09-11T06:16:00.846Z,0.35
2022-09-11T06:20:04.482Z,0.50
2022-09-11T06:24:10.170Z,0.55
2022-09-11T06:28:13.663Z,0.50
2022-09-11T06:32:17.079Z,0.30
2022-09-11T06:36:21.363Z,0.40
2022-09-11T06:40:26.781Z,0.30
2022-09-11T06:44:30.346Z,0.43
2022-09-11T06:48:34.009Z,0.40
2022-09-11T06:52:37.770Z,0.43
2022-09-11T06:56:42.427Z,0.52
2022-09-11T07:00:45.951Z,0.47
2022-09-11T07:04:49.652Z,0.40
2022-09-11T07:08:54.315Z,0.65
2022-09-11T07:12:58.682Z,0.30
2022-09-11T07:17:02.105Z,0.20
2022-09-11T07:21:09.305Z,0.57
2022-09-11T07:25:12.779Z,0.25
2022-09-11T07:29:18.614Z,0.60
2022-09-11T07:33:23.187Z,0.20
2022-09-11T07:37:26.975Z,0.20
2022-09-11T07:41:31.805Z,0.30
2022-09-11T07:45:36.942Z,0.15
2022-09-11T07:49:40.872Z,0.45
2022-09-11T07:53:46.326Z,0.52
2022-09-11T07:57:51.110Z,0.40
2022-09-11T08:01:56.911Z,0.70
2022-09-11T08:10:26.515Z,0.40
2022-09-11T08:14:31.358Z,0.38
2022-09-11T08:18:37.767Z,0.77
2022-09-11T08:22:42.853Z,0.80
2022-09-11T08:26:48.925Z,0.30
2022-09-11T08:30:58.463Z,0.35
2022-09-11T08:35:02.863Z,0.32
2022-09-11T08:39:06.779Z,0.50
2022-09-11T08:43:21.972Z,0.32
2022-09-11T08:47:29.803Z,0.55
2022-09-11T08:51:34.357Z,0.25
2022-09-11T08:55:40.249Z,0.40
2022-09-11T09:00:07.559Z,0.60
2022-09-11T09:04:30.692Z,0.57
2022-09-11T09:08:48.916Z,0.63
2022-09-11T09:13:00.438Z,0.30
2022-09-11T09:17:08.090Z,0.88
2022-09-11T09:21:16.716Z,0.75
2022-09-11T09:25:24.093Z,0.47
2022-09-11T09:29:37.592Z,0.40
2022-09-11T09:33:45.609Z,0.77
2022-09-11T09:37:49.255Z,0.43
2022-09-11T09:42:21.222Z,0.70
2022-09-11T09:46:36.202Z,0.60
2022-09-11T09:50:42.250Z,0.60
2022-09-11T09:54:50.271Z,0.65
2022-09-11T09:59:03.304Z,0.80
2022-09-11T10:03:21.063Z,0.73
2022-09-11T10:07:25.083Z,0.70
2022-09-11T10:11:30.607Z,0.70
2022-09-11T10:15:40.953Z,0.90
2022-09-11T10:19:45.386Z,1.17
2022-09-11T10:23:52.747Z,0.60
2022-09-11T10:28:02.844Z,0.50
2022-09-11T10:32:07.660Z,0.68
2022-09-11T10:36:12.403Z,0.80
2022-09-11T10:40:24.519Z,0.60
2022-09-11T10:44:30.356Z,0.70
2022-09-11T10:48:35.121Z,0.70
2022-09-11T10:52:51.310Z,0.73
2022-09-11T10:57:13.818Z,0.52
2022-09-11T11:01:17.560Z,0.40
2022-09-11T11:05:28.947Z,0.90
2022-09-11T11:09:51.878Z,0.77
2022-09-11T11:14:09.239Z,0.60
2022-09-11T11:18:24.437Z,0.60
2022-09-11T11:22:49.873Z,0.77
2022-09-11T11:27:10.175Z,0.57
2022-09-11T11:31:28.193Z,0.70
2022-09-11T11:35:37.850Z,0.90
2022-09-11T11:39:58.106Z,0.82
2022-09-11T11:44:04.732Z,0.73
2022-09-11T11:48:14.357Z,0.95
2022-09-11T11:52:31.828Z,0.90
2022-09-11T11:56:42.700Z,0.77
2022-09-11T12:00:55.248Z,0.63
2022-09-11T12:09:06.932Z,0.80
2022-09-11T12:13:17.040Z,0.80
2022-09-11T12:17:26.533Z,0.90
2022-09-11T12:21:44.397Z,1.00
2022-09-11T12:25:51.708Z,0.80
2022-09-11T12:29:59.612Z,0.65
2022-09-11T12:34:03.125Z,0.77
2022-09-11T12:38:20.132Z,0.60
2022-09-11T12:42:48.416Z,0.43
2022-09-11T12:47:20.210Z,0.60
2022-09-11T12:51:27.537Z,0.55
2022-09-11T12:55:35.954Z,0.30
2022-09-11T12:59:42.974Z,0.45
2022-09-11T13:04:03.483Z,0.57
2022-09-11T13:08:15.832Z,0.40
2022-09-11T13:12:53.732Z,0.25
2022-09-11T13:16:58.526Z,0.45
2022-09-11T13:21:15.278Z,0.40
2022-09-11T13:25:20.522Z,0.40
2022-09-11T13:29:27.357Z,0.30
2022-09-11T13:33:32.775Z,0.30
2022-09-11T13:37:42.638Z,0.25
2022-09-11T13:41:48.622Z,0.20
2022-09-11T13:46:11.603Z,0.40
2022-09-11T13:50:18.272Z,0.40
2022-09-11T13:54:29.893Z,0.57
2022-09-11T13:58:36.272Z,0.40
2022-09-11T14:02:50.675Z,0.47
2022-09-11T14:11:15.888Z,0.63
2022-09-11T14:15:26.800Z,0.50
2022-09-11T14:19:33.890Z,0.43
2022-09-11T14:23:44.570Z,0.50
2022-09-11T14:27:49.633Z,0.50
2022-09-11T14:31:53.963Z,0.50
2022-09-11T14:36:07.858Z,0.50
2022-09-11T14:40:17.737Z,0.45
2022-09-11T14:44:22.667Z,0.60
2022-09-11T14:48:27.611Z,0.45
2022-09-11T14:52:31.200Z,0.20
2022-09-11T14:56:34.850Z,0.35
2022-09-11T15:00:40.010Z,0.38
2022-09-11T15:04:43.276Z,0.50
2022-09-11T15:08:47.292Z,0.30
2022-09-11T15:12:51.082Z,0.40
2022-09-11T15:16:58.662Z,0.30
2022-09-11T15:21:01.854Z,0.40
2022-09-11T15:25:05.776Z,0.40
2022-09-11T15:29:10.180Z,0.60
2022-09-11T15:33:15.123Z,0.57
2022-09-11T15:37:18.885Z,0.50
2022-09-11T15:41:23.139Z,0.50
2022-09-11T15:45:26.636Z,0.68
2022-09-11T15:49:32.413Z,0.40
2022-09-11T15:53:36.703Z,0.80
2022-09-11T15:57:40.417Z,0.68
2022-09-11T16:01:44.632Z,0.57
2022-09-11T16:05:49.586Z,0.50
2022-09-11T16:09:53.197Z,0.40
2022-09-11T16:13:56.728Z,0.52
2022-09-11T16:18:00.334Z,0.57
2022-09-11T16:22:07.116Z,0.50
2022-09-11T16:26:12.579Z,0.52
2022-09-11T16:30:41.727Z,0.40
2022-09-11T16:34:39.975Z,0.20
2022-09-11T16:38:45.337Z,0.25
2022-09-11T16:42:48.538Z,0.30
2022-09-11T16:46:52.474Z,0.20
2022-09-11T16:50:57.631Z,0.10
2022-09-11T16:55:02.672Z,0.25
2022-09-11T16:59:07.035Z,0.30
2022-09-11T17:03:10.465Z,0.35
2022-09-11T17:07:14.008Z,0.38
2022-09-11T17:11:21.617Z,0.50
2022-09-11T17:15:25.887Z,0.50
2022-09-11T17:19:28.969Z,0.70
2022-09-11T17:23:33.193Z,0.68
2022-09-11T17:27:38.342Z,0.30
2022-09-11T17:31:42.146Z,0.60
2022-09-11T17:35:45.723Z,0.45
2022-09-11T17:39:48.864Z,0.70
2022-09-11T17:43:53.910Z,0.70
2022-09-11T17:47:57.637Z,0.80
2022-09-11T17:52:01.190Z,0.85
2022-09-11T17:56:06.794Z,1.02
2022-09-11T18:00:13.380Z,0.90
2022-09-11T18:04:19.908Z,1.15
2022-09-11T18:08:23.906Z,1.48
2022-09-11T18:12:29.164Z,1.20
2022-09-11T18:16:34.157Z,1.80
2022-09-11T18:20:37.604Z,1.35
2022-09-11T18:24:41.105Z,1.15
2022-09-11T18:28:45.151Z,1.40
2022-09-11T18:32:50.505Z,1.23
2022-09-11T18:36:54.355Z,1.50
2022-09-11T18:41:00.169Z,1.30
2022-09-11T18:45:03.719Z,1.38
2022-09-11T18:49:09.048Z,1.60
2022-09-11T18:53:13.428Z,1.92
2022-09-11T18:57:16.489Z,1.38
2022-09-11T19:01:22.905Z,1.52
2022-09-11T19:05:28.414Z,1.67
2022-09-11T19:09:32.279Z,1.30
2022-09-11T19:13:36.433Z,1.48
2022-09-11T19:17:40.346Z,1.10
2022-09-11T19:21:47.813Z,1.35
2022-09-11T19:25:50.944Z,1.63
2022-09-11T19:29:55.610Z,1.60
2022-09-11T19:34:01.809Z,1.30
2022-09-11T19:38:07.641Z,1.35
2022-09-11T19:42:11.484Z,1.30
2022-09-11T19:46:18.411Z,1.67
2022-09-11T19:50:23.362Z,1.45
2022-09-11T19:54:28.236Z,1.02
2022-09-11T19:58:32.164Z,1.35
2022-09-11T20:02:35.920Z,1.67
2022-09-11T20:06:39.886Z,1.02
2022-09-11T20:10:47.337Z,1.45
2022-09-11T20:14:51.170Z,1.40
2022-09-11T20:18:56.569Z,1.58
2022-09-11T20:23:00.801Z,1.23
2022-09-11T20:27:07.037Z,1.17
2022-09-11T20:31:14.575Z,1.30
2022-09-11T20:35:18.827Z,0.90
2022-09-11T20:39:23.359Z,1.35
2022-09-11T20:43:28.847Z,1.00
2022-09-11T20:47:31.893Z,0.85
2022-09-11T20:51:35.748Z,0.80
2022-09-11T20:55:38.688Z,0.98
2022-09-11T20:59:44.404Z,0.88
2022-09-11T21:03:49.045Z,0.65
2022-09-11T21:07:52.961Z,0.70
2022-09-11T21:11:56.417Z,0.60
2022-09-11T21:16:01.434Z,0.60
2022-09-11T21:20:05.170Z,0.77
2022-09-11T21:24:12.473Z,0.45
2022-09-11T21:28:15.615Z,0.70
2022-09-11T21:32:20.615Z,0.82
2022-09-11T21:36:24.390Z,0.55
2022-09-11T21:40:27.312Z,0.60
2022-09-11T21:44:30.377Z,0.80
2022-09-11T21:48:36.805Z,0.50
2022-09-11T21:52:39.766Z,0.43
2022-09-11T21:56:46.271Z,0.80
2022-09-11T22:00:50.675Z,0.60
2022-09-11T22:04:55.389Z,0.80
2022-09-11T22:08:59.102Z,0.60
2022-09-11T22:13:02.488Z,0.70
2022-09-11T22:17:06.221Z,0.65
2022-09-11T22:21:12.253Z,0.70
2022-09-11T22:25:15.729Z,0.70
2022-09-11T22:29:19.007Z,0.75
2022-09-11T22:33:22.452Z,0.90
2022-09-11T22:37:26.801Z,0.80
2022-09-11T22:41:30.239Z,0.43
2022-09-11T22:45:34.045Z,0.80
2022-09-11T22:49:37.412Z,0.68
2022-09-11T22:53:42.621Z,0.85
2022-09-11T22:57:46.136Z,0.73
2022-09-11T23:01:49.386Z,0.93
2022-09-11T23:06:14.433Z,0.77
2022-09-11T23:10:21.527Z,1.00
2022-09-11T23:14:24.574Z,0.90
2022-09-11T23:18:29.101Z,1.33
2022-09-11T23:22:32.871Z,0.70
2022-09-11T23:26:37.712Z,0.82
2022-09-11T23:30:41.426Z,1.10
2022-09-11T23:34:44.626Z,1.30
2022-09-11T23:38:49.752Z,1.15
2022-09-11T23:42:54.100Z,1.02
2022-09-11T23:46:57.827Z,1.20
2022-09-11T23:51:01.891Z,0.90
2022-09-11T23:55:05.471Z,1.08
2022-09-11T23:59:10.261Z,1.35
